Aviation Digital Data Service (ADDS)

Output produced by METARs form (0831 UTC 19 April 2019)
found at http://www.aviationweather.gov/metar/data/
 
METAR text: OPPS 190800Z 05008KT 7000 HZ FEW040 BKN210 28/16 Q1011
Conditions at: OPPS (PESHAWAR (CIV/MI, PK) observed 0800 UTC 19 April 2019
Temperature: 28.0°C (82°F)
Dewpoint: 16.0°C (61°F) [RH = 48%]
Pressure (altimeter): 29.85 inches Hg (1011.0 mb)
Winds: from the NE (50 degrees) at 9 MPH (8 knots; 4.1 m/s)
Visibility: 4 miles ( 7 km)
Ceiling: 21000 feet AGL
Clouds: few clouds at 4000 feet AGL
broken clouds at 21000 feet AGL
Weather: HZ  (haze)

METAR text: OPPS 190730Z 05006KT 7000 HZ FEW040 SCT210 27/16 Q1017
Conditions at: OPPS (PESHAWAR (CIV/MI, PK) observed 0730 UTC 19 April 2019
Temperature: 27.0°C (81°F)
Dewpoint: 16.0°C (61°F) [RH = 51%]
Pressure (altimeter): 30.03 inches Hg (1017.0 mb)
Winds: from the NE (50 degrees) at 7 MPH (6 knots; 3.1 m/s)
Visibility: 4 miles ( 7 km)
Ceiling: at least 12,000 feet AGL
Clouds: few clouds at 4000 feet AGL
scattered clouds at 21000 feet AGL
Weather: HZ  (haze)

METAR text: OPPS 190700Z 05006KT 7000 HZ FEW040 SCT210 27/16 Q1017
Conditions at: OPPS (PESHAWAR (CIV/MI, PK) observed 0700 UTC 19 April 2019
Temperature: 27.0°C (81°F)
Dewpoint: 16.0°C (61°F) [RH = 51%]
Pressure (altimeter): 30.03 inches Hg (1017.0 mb)
Winds: from the NE (50 degrees) at 7 MPH (6 knots; 3.1 m/s)
Visibility: 4 miles ( 7 km)
Ceiling: at least 12,000 feet AGL
Clouds: few clouds at 4000 feet AGL
scattered clouds at 21000 feet AGL
Weather: HZ  (haze)

METAR text: OPPS 190630Z 05004KT 7000 HZ FEW040 FEW120 26/15 Q1013
Conditions at: OPPS (PESHAWAR (CIV/MI, PK) observed 0630 UTC 19 April 2019
Temperature: 26.0°C (79°F)
Dewpoint: 15.0°C (59°F) [RH = 51%]
Pressure (altimeter): 29.91 inches Hg (1013.0 mb)
Winds: from the NE (50 degrees) at 5 MPH (4 knots; 2.1 m/s)
Visibility: 4 miles ( 7 km)
Ceiling: at least 12,000 feet AGL
Clouds: few clouds at 4000 feet AGL
few clouds at 12000 feet AGL
Weather: HZ  (haze)

METAR text: OPPS 190600Z 05004KT 7000 HZ FEW040 FEW120 26/15 Q1013
Conditions at: OPPS (PESHAWAR (CIV/MI, PK) observed 0600 UTC 19 April 2019
Temperature: 26.0°C (79°F)
Dewpoint: 15.0°C (59°F) [RH = 51%]
Pressure (altimeter): 29.91 inches Hg (1013.0 mb)
Winds: from the NE (50 degrees) at 5 MPH (4 knots; 2.1 m/s)
Visibility: 4 miles ( 7 km)
Ceiling: at least 12,000 feet AGL
Clouds: few clouds at 4000 feet AGL
few clouds at 12000 feet AGL
Weather: HZ  (haze)

METAR text: OPPS 190500Z 09004KT 6000 HZ FEW100 25/15 Q1013
Conditions at: OPPS (PESHAWAR (CIV/MI, PK) observed 0500 UTC 19 April 2019
Temperature: 25.0°C (77°F)
Dewpoint: 15.0°C (59°F) [RH = 54%]
Pressure (altimeter): 29.91 inches Hg (1013.0 mb)
Winds: from the E (90 degrees) at 5 MPH (4 knots; 2.1 m/s)
Visibility: 4 miles ( 6 km)
Ceiling: at least 12,000 feet AGL
Clouds: few clouds at 10000 feet AGL
Weather: HZ  (haze)

METAR text: OPPS 190430Z 05004KT 5000 HZ FEW100 23/15 Q1012
Conditions at: OPPS (PESHAWAR (CIV/MI, PK) observed 0430 UTC 19 April 2019
Temperature: 23.0°C (73°F)
Dewpoint: 15.0°C (59°F) [RH = 61%]
Pressure (altimeter): 29.88 inches Hg (1012.0 mb)
Winds: from the NE (50 degrees) at 5 MPH (4 knots; 2.1 m/s)
Visibility: 3 miles ( 5 km)
Ceiling: at least 12,000 feet AGL
Clouds: few clouds at 10000 feet AGL
Weather: HZ  (haze)

METAR text: OPPS 190400Z 05004KT 5000 HZ FEW100 23/15 Q1012
Conditions at: OPPS (PESHAWAR (CIV/MI, PK) observed 0400 UTC 19 April 2019
Temperature: 23.0°C (73°F)
Dewpoint: 15.0°C (59°F) [RH = 61%]
Pressure (altimeter): 29.88 inches Hg (1012.0 mb)
Winds: from the NE (50 degrees) at 5 MPH (4 knots; 2.1 m/s)
Visibility: 3 miles ( 5 km)
Ceiling: at least 12,000 feet AGL
Clouds: few clouds at 10000 feet AGL
Weather: HZ  (haze)

METAR text: OPPS 190330Z 05004KT 5000 HZ FEW100 21/15 Q1012
Conditions at: OPPS (PESHAWAR (CIV/MI, PK) observed 0330 UTC 19 April 2019
Temperature: 21.0°C (70°F)
Dewpoint: 15.0°C (59°F) [RH = 69%]
Pressure (altimeter): 29.88 inches Hg (1012.0 mb)
Winds: from the NE (50 degrees) at 5 MPH (4 knots; 2.1 m/s)
Visibility: 3 miles ( 5 km)
Ceiling: at least 12,000 feet AGL
Clouds: few clouds at 10000 feet AGL
Weather: HZ  (haze)

METAR text: OPPS 190300Z 05005KT 5000 HZ FEW200 21/15 Q1012
Conditions at: OPPS (PESHAWAR (CIV/MI, PK) observed 0300 UTC 19 April 2019
Temperature: 21.0°C (70°F)
Dewpoint: 15.0°C (59°F) [RH = 69%]
Pressure (altimeter): 29.88 inches Hg (1012.0 mb)
Winds: from the NE (50 degrees) at 6 MPH (5 knots; 2.6 m/s)
Visibility: 3 miles ( 5 km)
Ceiling: at least 12,000 feet AGL
Clouds: few clouds at 20000 feet AGL
Weather: HZ  (haze)

METAR text: OPPS 190000Z 27006KT 4000 BR FEW110 16/13 Q1011
Conditions at: OPPS (PESHAWAR (CIV/MI, PK) observed 0000 UTC 19 April 2019
Temperature: 16.0°C (61°F)
Dewpoint: 13.0°C (55°F) [RH = 82%]
Pressure (altimeter): 29.85 inches Hg (1011.0 mb)
Winds: from the W (270 degrees) at 7 MPH (6 knots; 3.1 m/s)
Visibility: 2.49 miles (4.01 km)
Ceiling: at least 12,000 feet AGL
Clouds: few clouds at 11000 feet AGL
Weather: BR  (mist)

METAR text: OPPS 182300Z 23006KT 4000 HZ FEW100 17/14 Q1011
Conditions at: OPPS (PESHAWAR (CIV/MI, PK) observed 2300 UTC 18 April 2019
Temperature: 17.0°C (63°F)
Dewpoint: 14.0°C (57°F) [RH = 82%]
Pressure (altimeter): 29.85 inches Hg (1011.0 mb)
Winds: from the SW (230 degrees) at 7 MPH (6 knots; 3.1 m/s)
Visibility: 2.49 miles (4.01 km)
Ceiling: at least 12,000 feet AGL
Clouds: few clouds at 10000 feet AGL
Weather: HZ  (haze)

METAR text: OPPS 182200Z 23006KT 4000 HZ FEW200 19/14 Q1012
Conditions at: OPPS (PESHAWAR (CIV/MI, PK) observed 2200 UTC 18 April 2019
Temperature: 19.0°C (66°F)
Dewpoint: 14.0°C (57°F) [RH = 73%]
Pressure (altimeter): 29.88 inches Hg (1012.0 mb)
Winds: from the SW (230 degrees) at 7 MPH (6 knots; 3.1 m/s)
Visibility: 2.49 miles (4.01 km)
Ceiling: at least 12,000 feet AGL
Clouds: few clouds at 20000 feet AGL
Weather: HZ  (haze)

METAR text: OPPS 182100Z 23006KT 4000 HZ FEW200 19/14 Q1012
Conditions at: OPPS (PESHAWAR (CIV/MI, PK) observed 2100 UTC 18 April 2019
Temperature: 19.0°C (66°F)
Dewpoint: 14.0°C (57°F) [RH = 73%]
Pressure (altimeter): 29.88 inches Hg (1012.0 mb)
Winds: from the SW (230 degrees) at 7 MPH (6 knots; 3.1 m/s)
Visibility: 2.49 miles (4.01 km)
Ceiling: at least 12,000 feet AGL
Clouds: few clouds at 20000 feet AGL
Weather: HZ  (haze)

METAR text: OPPS 182000Z 23006KT 4000 HZ FEW200 19/14 Q1012
Conditions at: OPPS (PESHAWAR (CIV/MI, PK) observed 2000 UTC 18 April 2019
Temperature: 19.0°C (66°F)
Dewpoint: 14.0°C (57°F) [RH = 73%]
Pressure (altimeter): 29.88 inches Hg (1012.0 mb)
Winds: from the SW (230 degrees) at 7 MPH (6 knots; 3.1 m/s)
Visibility: 2.49 miles (4.01 km)
Ceiling: at least 12,000 feet AGL
Clouds: few clouds at 20000 feet AGL
Weather: HZ  (haze)

METAR text: OPPS 181900Z 23006KT 4000 HZ FEW200 20/14 Q1014
Conditions at: OPPS (PESHAWAR (CIV/MI, PK) observed 1900 UTC 18 April 2019
Temperature: 20.0°C (68°F)
Dewpoint: 14.0°C (57°F) [RH = 68%]
Pressure (altimeter): 29.94 inches Hg (1014.0 mb)
Winds: from the SW (230 degrees) at 7 MPH (6 knots; 3.1 m/s)
Visibility: 2.49 miles (4.01 km)
Ceiling: at least 12,000 feet AGL
Clouds: few clouds at 20000 feet AGL
Weather: HZ  (haze)

METAR text: OPPS 181800Z 23006KT 4000 HZ FEW200 20/14 Q1014
Conditions at: OPPS (PESHAWAR (CIV/MI, PK) observed 1800 UTC 18 April 2019
Temperature: 20.0°C (68°F)
Dewpoint: 14.0°C (57°F) [RH = 68%]
Pressure (altimeter): 29.94 inches Hg (1014.0 mb)
Winds: from the SW (230 degrees) at 7 MPH (6 knots; 3.1 m/s)
Visibility: 2.49 miles (4.01 km)
Ceiling: at least 12,000 feet AGL
Clouds: few clouds at 20000 feet AGL
Weather: HZ  (haze)

METAR text: OPPS 181630Z 23006KT 4000 HZ FEW200 21/13 Q1014
Conditions at: OPPS (PESHAWAR (CIV/MI, PK) observed 1630 UTC 18 April 2019
Temperature: 21.0°C (70°F)
Dewpoint: 13.0°C (55°F) [RH = 60%]
Pressure (altimeter): 29.94 inches Hg (1014.0 mb)
Winds: from the SW (230 degrees) at 7 MPH (6 knots; 3.1 m/s)
Visibility: 2.49 miles (4.01 km)
Ceiling: at least 12,000 feet AGL
Clouds: few clouds at 20000 feet AGL
Weather: HZ  (haze)

METAR text: OPPS 181500Z 18004KT 7000 HZ FEW040 25/14 Q1014
Conditions at: OPPS (PESHAWAR (CIV/MI, PK) observed 1500 UTC 18 April 2019
Temperature: 25.0°C (77°F)
Dewpoint: 14.0°C (57°F) [RH = 50%]
Pressure (altimeter): 29.94 inches Hg (1014.0 mb)
Winds: from the S (180 degrees) at 5 MPH (4 knots; 2.1 m/s)
Visibility: 4 miles ( 7 km)
Ceiling: at least 12,000 feet AGL
Clouds: few clouds at 4000 feet AGL
Weather: HZ  (haze)

METAR text: OPPS 181400Z 09004KT 9999 FEW040 FEW200 25/15 Q1013
Conditions at: OPPS (PESHAWAR (CIV/MI, PK) observed 1400 UTC 18 April 2019
Temperature: 25.0°C (77°F)
Dewpoint: 15.0°C (59°F) [RH = 54%]
Pressure (altimeter): 29.91 inches Hg (1013.0 mb)
Winds: from the E (90 degrees) at 5 MPH (4 knots; 2.1 m/s)
Visibility: 6 or more miles (10+ km)
Ceiling: at least 12,000 feet AGL
Clouds: few clouds at 4000 feet AGL
few clouds at 20000 feet AGL
Weather: no significant weather observed at this time

METAR text: OPPS 181300Z 05004KT 9999 FEW040 FEW200 26/14 Q1013
Conditions at: OPPS (PESHAWAR (CIV/MI, PK) observed 1300 UTC 18 April 2019
Temperature: 26.0°C (79°F)
Dewpoint: 14.0°C (57°F) [RH = 48%]
Pressure (altimeter): 29.91 inches Hg (1013.0 mb)
Winds: from the NE (50 degrees) at 5 MPH (4 knots; 2.1 m/s)
Visibility: 6 or more miles (10+ km)
Ceiling: at least 12,000 feet AGL
Clouds: few clouds at 4000 feet AGL
few clouds at 20000 feet AGL
Weather: no significant weather observed at this time

METAR text: OPPS 181200Z 36006KT 9999 FEW040 FEW110 28/14 Q1013
Conditions at: OPPS (PESHAWAR (CIV/MI, PK) observed 1200 UTC 18 April 2019
Temperature: 28.0°C (82°F)
Dewpoint: 14.0°C (57°F) [RH = 42%]
Pressure (altimeter): 29.91 inches Hg (1013.0 mb)
Winds: from the N (360 degrees) at 7 MPH (6 knots; 3.1 m/s)
Visibility: 6 or more miles (10+ km)
Ceiling: at least 12,000 feet AGL
Clouds: few clouds at 4000 feet AGL
few clouds at 11000 feet AGL
Weather: no significant weather observed at this time

METAR text: OPPS 181100Z 36006KT 9999 FEW040 FEW110 27/14 Q1014
Conditions at: OPPS (PESHAWAR (CIV/MI, PK) observed 1100 UTC 18 April 2019
Temperature: 27.0°C (81°F)
Dewpoint: 14.0°C (57°F) [RH = 45%]
Pressure (altimeter): 29.94 inches Hg (1014.0 mb)
Winds: from the N (360 degrees) at 7 MPH (6 knots; 3.1 m/s)
Visibility: 6 or more miles (10+ km)
Ceiling: at least 12,000 feet AGL
Clouds: few clouds at 4000 feet AGL
few clouds at 11000 feet AGL
Weather: no significant weather observed at this time

METAR text: OPPS 181030Z 27006KT 9999 SCT040 27/16 Q1014
Conditions at: OPPS (PESHAWAR (CIV/MI, PK) observed 1030 UTC 18 April 2019
Temperature: 27.0°C (81°F)
Dewpoint: 16.0°C (61°F) [RH = 51%]
Pressure (altimeter): 29.94 inches Hg (1014.0 mb)
Winds: from the W (270 degrees) at 7 MPH (6 knots; 3.1 m/s)
Visibility: 6 or more miles (10+ km)
Ceiling: at least 12,000 feet AGL
Clouds: scattered clouds at 4000 feet AGL
Weather: no significant weather observed at this time

METAR text: OPPS 181000Z 27006KT 9999 SCT040 27/16 Q1015
Conditions at: OPPS (PESHAWAR (CIV/MI, PK) observed 1000 UTC 18 April 2019
Temperature: 27.0°C (81°F)
Dewpoint: 16.0°C (61°F) [RH = 51%]
Pressure (altimeter): 29.97 inches Hg (1015.0 mb)
Winds: from the W (270 degrees) at 7 MPH (6 knots; 3.1 m/s)
Visibility: 6 or more miles (10+ km)
Ceiling: at least 12,000 feet AGL
Clouds: scattered clouds at 4000 feet AGL
Weather: no significant weather observed at this time

METAR text: OPPS 180930Z 27006KT 9999 SCT040 27/16 Q1016
Conditions at: OPPS (PESHAWAR (CIV/MI, PK) observed 0930 UTC 18 April 2019
Temperature: 27.0°C (81°F)
Dewpoint: 16.0°C (61°F) [RH = 51%]
Pressure (altimeter): 30.00 inches Hg (1016.0 mb)
Winds: from the W (270 degrees) at 7 MPH (6 knots; 3.1 m/s)
Visibility: 6 or more miles (10+ km)
Ceiling: at least 12,000 feet AGL
Clouds: scattered clouds at 4000 feet AGL
Weather: no significant weather observed at this time

METAR text: OPPS 180900Z 27006KT 9999 SCT040 27/16 Q1016
Conditions at: OPPS (PESHAWAR (CIV/MI, PK) observed 0900 UTC 18 April 2019
Temperature: 27.0°C (81°F)
Dewpoint: 16.0°C (61°F) [RH = 51%]
Pressure (altimeter): 30.00 inches Hg (1016.0 mb)
Winds: from the W (270 degrees) at 7 MPH (6 knots; 3.1 m/s)
Visibility: 6 or more miles (10+ km)
Ceiling: at least 12,000 feet AGL
Clouds: scattered clouds at 4000 feet AGL
Weather: no significant weather observed at this time

METAR text: OPPS 180830Z 13006KT 9999 SCT040 FEW100 26/15 Q1016
Conditions at: OPPS (PESHAWAR (CIV/MI, PK) observed 0830 UTC 18 April 2019
Temperature: 26.0°C (79°F)
Dewpoint: 15.0°C (59°F) [RH = 51%]
Pressure (altimeter): 30.00 inches Hg (1016.0 mb)
Winds: from the SE (130 degrees) at 7 MPH (6 knots; 3.1 m/s)
Visibility: 6 or more miles (10+ km)
Ceiling: at least 12,000 feet AGL
Clouds: scattered clouds at 4000 feet AGL
few clouds at 10000 feet AGL
Weather: no significant weather observed at this time

METAR text: OPPS 180800Z 13006KT 9999 SCT040 FEW100 26/15 Q1016
Conditions at: OPPS (PESHAWAR (CIV/MI, PK) observed 0800 UTC 18 April 2019
Temperature: 26.0°C (79°F)
Dewpoint: 15.0°C (59°F) [RH = 51%]
Pressure (altimeter): 30.00 inches Hg (1016.0 mb)
Winds: from the SE (130 degrees) at 7 MPH (6 knots; 3.1 m/s)
Visibility: 6 or more miles (10+ km)
Ceiling: at least 12,000 feet AGL
Clouds: scattered clouds at 4000 feet AGL
few clouds at 10000 feet AGL
Weather: no significant weather observed at this time

METAR text: OPPS 180730Z 31006KT 9999 FEW040 25/15 Q1017
Conditions at: OPPS (PESHAWAR (CIV/MI, PK) observed 0730 UTC 18 April 2019
Temperature: 25.0°C (77°F)
Dewpoint: 15.0°C (59°F) [RH = 54%]
Pressure (altimeter): 30.03 inches Hg (1017.0 mb)
Winds: from the NW (310 degrees) at 7 MPH (6 knots; 3.1 m/s)
Visibility: 6 or more miles (10+ km)
Ceiling: at least 12,000 feet AGL
Clouds: few clouds at 4000 feet AGL
Weather: no significant weather observed at this time

METAR text: OPPS 180700Z 31006KT 9999 FEW040 25/15 Q1017
Conditions at: OPPS (PESHAWAR (CIV/MI, PK) observed 0700 UTC 18 April 2019
Temperature: 25.0°C (77°F)
Dewpoint: 15.0°C (59°F) [RH = 54%]
Pressure (altimeter): 30.03 inches Hg (1017.0 mb)
Winds: from the NW (310 degrees) at 7 MPH (6 knots; 3.1 m/s)
Visibility: 6 or more miles (10+ km)
Ceiling: at least 12,000 feet AGL
Clouds: few clouds at 4000 feet AGL
Weather: no significant weather observed at this time

METAR text: OPPS 180630Z 05006KT 9999 FEW040 FEW110 24/15 Q1018
Conditions at: OPPS (PESHAWAR (CIV/MI, PK) observed 0630 UTC 18 April 2019
Temperature: 24.0°C (75°F)
Dewpoint: 15.0°C (59°F) [RH = 57%]
Pressure (altimeter): 30.06 inches Hg (1018.0 mb)
Winds: from the NE (50 degrees) at 7 MPH (6 knots; 3.1 m/s)
Visibility: 6 or more miles (10+ km)
Ceiling: at least 12,000 feet AGL
Clouds: few clouds at 4000 feet AGL
few clouds at 11000 feet AGL
Weather: no significant weather observed at this time

METAR text: OPPS 180600Z 05006KT 9999 FEW040 FEW110 24/15 Q1018
Conditions at: OPPS (PESHAWAR (CIV/MI, PK) observed 0600 UTC 18 April 2019
Temperature: 24.0°C (75°F)
Dewpoint: 15.0°C (59°F) [RH = 57%]
Pressure (altimeter): 30.06 inches Hg (1018.0 mb)
Winds: from the NE (50 degrees) at 7 MPH (6 knots; 3.1 m/s)
Visibility: 6 or more miles (10+ km)
Ceiling: at least 12,000 feet AGL
Clouds: few clouds at 4000 feet AGL
few clouds at 11000 feet AGL
Weather: no significant weather observed at this time

METAR text: OPPS 180530Z 05006KT 8000 HZ FEW040 SCT110 23/16 Q1018
Conditions at: OPPS (PESHAWAR (CIV/MI, PK) observed 0530 UTC 18 April 2019
Temperature: 23.0°C (73°F)
Dewpoint: 16.0°C (61°F) [RH = 65%]
Pressure (altimeter): 30.06 inches Hg (1018.0 mb)
Winds: from the NE (50 degrees) at 7 MPH (6 knots; 3.1 m/s)
Visibility: 5 miles ( 8 km)
Ceiling: at least 12,000 feet AGL
Clouds: few clouds at 4000 feet AGL
scattered clouds at 11000 feet AGL
Weather: HZ  (haze)

METAR text: OPPS 180500Z 27006KT 6000 HZ FEW040 SCT110 22/15 Q1018
Conditions at: OPPS (PESHAWAR (CIV/MI, PK) observed 0500 UTC 18 April 2019
Temperature: 22.0°C (72°F)
Dewpoint: 15.0°C (59°F) [RH = 65%]
Pressure (altimeter): 30.06 inches Hg (1018.0 mb)
Winds: from the W (270 degrees) at 7 MPH (6 knots; 3.1 m/s)
Visibility: 4 miles ( 6 km)
Ceiling: at least 12,000 feet AGL
Clouds: few clouds at 4000 feet AGL
scattered clouds at 11000 feet AGL
Weather: HZ  (haze)

METAR text: OPPS 180430Z 23006KT 5000 HZ SCT040 BKN100 21/16 Q1018
Conditions at: OPPS (PESHAWAR (CIV/MI, PK) observed 0430 UTC 18 April 2019
Temperature: 21.0°C (70°F)
Dewpoint: 16.0°C (61°F) [RH = 73%]
Pressure (altimeter): 30.06 inches Hg (1018.0 mb)
Winds: from the SW (230 degrees) at 7 MPH (6 knots; 3.1 m/s)
Visibility: 3 miles ( 5 km)
Ceiling: 10000 feet AGL
Clouds: scattered clouds at 4000 feet AGL
broken clouds at 10000 feet AGL
Weather: HZ  (haze)

METAR text: OPPS 180400Z 23006KT 4000 HZ SCT040 BKN100 20/16 Q1018
Conditions at: OPPS (PESHAWAR (CIV/MI, PK) observed 0400 UTC 18 April 2019
Temperature: 20.0°C (68°F)
Dewpoint: 16.0°C (61°F) [RH = 78%]
Pressure (altimeter): 30.06 inches Hg (1018.0 mb)
Winds: from the SW (230 degrees) at 7 MPH (6 knots; 3.1 m/s)
Visibility: 2.49 miles (4.01 km)
Ceiling: 10000 feet AGL
Clouds: scattered clouds at 4000 feet AGL
broken clouds at 10000 feet AGL
Weather: HZ  (haze)

METAR text: OPPS 180330Z 23004KT 3000 BR SCT045 BKN100 18/15 Q1017
Conditions at: OPPS (PESHAWAR (CIV/MI, PK) observed 0330 UTC 18 April 2019
Temperature: 18.0°C (64°F)
Dewpoint: 15.0°C (59°F) [RH = 83%]
Pressure (altimeter): 30.03 inches Hg (1017.0 mb)
Winds: from the SW (230 degrees) at 5 MPH (4 knots; 2.1 m/s)
Visibility: 1.86 miles (2.99 km)
Ceiling: 10000 feet AGL
Clouds: scattered clouds at 4500 feet AGL
broken clouds at 10000 feet AGL
Weather: BR  (mist)

METAR text: OPPS 180300Z 23004KT 3000 BR SCT045 BKN100 18/15 Q1017
Conditions at: OPPS (PESHAWAR (CIV/MI, PK) observed 0300 UTC 18 April 2019
Temperature: 18.0°C (64°F)
Dewpoint: 15.0°C (59°F) [RH = 83%]
Pressure (altimeter): 30.03 inches Hg (1017.0 mb)
Winds: from the SW (230 degrees) at 5 MPH (4 knots; 2.1 m/s)
Visibility: 1.86 miles (2.99 km)
Ceiling: 10000 feet AGL
Clouds: scattered clouds at 4500 feet AGL
broken clouds at 10000 feet AGL
Weather: BR  (mist)

METAR text: OPPS 172230Z 27004KT 4000 RA SCT015 BKN035 BKN080 FEW030TCU 16/15 Q1016
Conditions at: OPPS (PESHAWAR (CIV/MI, PK) observed 2230 UTC 17 April 2019
Temperature: 16.0°C (61°F)
Dewpoint: 15.0°C (59°F) [RH = 94%]
Pressure (altimeter): 30.00 inches Hg (1016.0 mb)
Winds: from the W (270 degrees) at 5 MPH (4 knots; 2.1 m/s)
Visibility: 2.49 miles (4.01 km)
Ceiling: 3500 feet AGL
Clouds: scattered clouds at 1500 feet AGL
broken clouds at 3500 feet AGL
broken clouds at 8000 feet AGL
few clouds at 3000 feet AGL
Weather: RA  (moderate rain)

METAR text: OPPS 172200Z 27004KT 4000 RA SCT015 BKN035 BKN080 FEW030TCU 16/15 Q1016
Conditions at: OPPS (PESHAWAR (CIV/MI, PK) observed 2200 UTC 17 April 2019
Temperature: 16.0°C (61°F)
Dewpoint: 15.0°C (59°F) [RH = 94%]
Pressure (altimeter): 30.00 inches Hg (1016.0 mb)
Winds: from the W (270 degrees) at 5 MPH (4 knots; 2.1 m/s)
Visibility: 2.49 miles (4.01 km)
Ceiling: 3500 feet AGL
Clouds: scattered clouds at 1500 feet AGL
broken clouds at 3500 feet AGL
broken clouds at 8000 feet AGL
few clouds at 3000 feet AGL
Weather: RA  (moderate rain)

METAR text: OPPS 172100Z 23004KT 4000 RA SCT015 BKN035 BKN080 16/15 Q1017
Conditions at: OPPS (PESHAWAR (CIV/MI, PK) observed 2100 UTC 17 April 2019
Temperature: 16.0°C (61°F)
Dewpoint: 15.0°C (59°F) [RH = 94%]
Pressure (altimeter): 30.03 inches Hg (1017.0 mb)
Winds: from the SW (230 degrees) at 5 MPH (4 knots; 2.1 m/s)
Visibility: 2.49 miles (4.01 km)
Ceiling: 3500 feet AGL
Clouds: scattered clouds at 1500 feet AGL
broken clouds at 3500 feet AGL
broken clouds at 8000 feet AGL
Weather: RA  (moderate rain)

Forecast for: OPPS (PESHAWAR (CIV/MI, PK)
Text: TAF OPPS 190342Z 1906/2012 21010KT 4000 HZ FEW040 SCT100
Forecast period: 0600 UTC 19 April 2019 to 1200 UTC 20 April 2019
Forecast type: FROM: standard forecast or significant change
Winds: from the SSW (210 degrees) at 12 MPH (10 knots; 5.1 m/s)
Visibility: 2.49 miles (4.01 km)
Ceiling: at least 12,000 feet AGL
Clouds: few clouds at 4000 feet AGL
scattered clouds at 10000 feet AGL
Weather: HZ  (haze)
Text: TEMPO 1909/1912 SCT040 SCT100
Forecast period: 0900 to 1200 UTC 19 April 2019
Forecast type: TEMPORARY: The following changes expected for less than half the time period
Visibility: missing
Ceiling: at least 12,000 feet AGL
Clouds: scattered clouds at 4000 feet AGL
scattered clouds at 10000 feet AGL
Weather: no significant weather forecast for this period
Text: TEMPO 2002/2004 2500 BR
Forecast period: 0200 to 0400 UTC 20 April 2019
Forecast type: TEMPORARY: The following changes expected for less than half the time period
Visibility: 1.55 miles (2.49 km)
Ceiling: unknown
Clouds: missing
Weather: BR  (mist)
Text: TEMPO 2009/2012 SCT040 SCT100 BKN200
Forecast period: 0900 to 1200 UTC 20 April 2019
Forecast type: TEMPORARY: The following changes expected for less than half the time period
Visibility: missing
Ceiling: 20000 feet AGL
Clouds: scattered clouds at 4000 feet AGL
scattered clouds at 10000 feet AGL
broken clouds at 20000 feet AGL
Weather: no significant weather forecast for this period